Date,TemperatureHighF,TemperatureAvgF,TemperatureLowF,DewpointHighF,DewpointAvgF,DewpointLowF,HumidityHigh,HumidityAvg,HumidityLow,PressureMaxIn,PressureMinIn,WindSpeedMaxMPH,WindSpeedAvgMPH,GustSpeedMaxMPH,PrecipitationSumIn
2014-1-1,69.9,42.2,26.6,64.2,40.7,26.6,100,95,71,30.11,30.00,1,0,4,0.00
2014-1-2,70.1,46.1,30.6,59.9,42.4,30.6,100,89,68,30.06,29.94,7,1,9,0.00
2014-1-3,73.2,46.6,31.9,65.9,44.5,31.9,100,93,73,29.96,29.84,4,0,6,0.00
2014-1-4,69.8,43.8,28.5,59.2,40.8,28.5,100,91,67,29.97,29.85,4,0,4,0.00
2014-1-5,67.4,40.2,22.7,50.2,32.8,22.7,100,79,46,30.07,29.95,6,1,8,0.00
2014-1-6,63.5,45.5,28.8,47.5,38.2,25.6,99,78,53,30.16,30.05,6,1,9,0.00
2014-1-7,64.5,47.4,34.7,57.2,44.9,33.9,100,92,70,30.10,30.01,3,0,4,0.00
2014-1-8,58.7,53.6,45.1,58.7,53.6,45.1,100,100,100,30.12,30.04,7,1,9,0.00
2014-1-9,58.6,52.5,42.5,58.3,52.4,42.5,100,100,96,30.15,30.07,10,2,12,0.00
2014-1-10,66.1,50.1,39.6,64.6,49.8,39.6,100,99,87,30.19,30.07,2,0,5,0.00
2014-1-11,60.5,50.6,41.1,60.5,50.6,41.1,100,100,100,30.16,30.02,7,1,10,0.00
2014-1-12,61.6,47.3,36.0,58.1,46.1,36.0,100,96,74,30.28,30.15,5,0,5,0.00
2014-1-13,65.8,43.7,29.8,57.3,41.1,29.8,100,92,73,30.35,30.23,9,1,12,0.00
2014-1-14,73.5,42.7,25.4,61.4,38.7,25.4,100,88,64,30.35,30.21,4,0,5,0.00
2014-1-15,71.8,46.7,29.3,60.9,41.6,29.3,100,84,64,30.23,30.09,7,1,9,0.00
2014-1-16,74.4,45.2,27.2,62.7,39.8,27.2,100,84,60,30.12,30.01,5,0,7,0.00
2014-1-17,71.6,44.8,27.5,60.1,40.0,26.8,100,85,64,30.07,29.99,10,1,15,0.00
2014-1-18,75.6,45.1,27.2,62.6,39.0,27.1,100,82,58,30.04,29.93,7,1,9,0.00
2014-1-19,68.6,44.0,26.0,57.8,39.0,25.0,100,84,68,30.00,29.92,5,1,11,0.00
2014-1-20,73.7,44.2,26.1,61.0,38.7,26.1,100,83,61,30.12,29.98,5,1,6,0.00
2014-1-21,76.1,42.9,24.2,63.0,38.2,23.7,100,86,58,30.16,30.03,3,0,4,0.00
2014-1-22,75.6,44.7,26.0,65.5,41.2,26.0,100,90,56,30.06,29.81,3,0,6,0.00
2014-1-23,69.8,51.7,29.0,53.5,42.0,29.0,100,72,52,29.90,29.74,8,2,11,0.00
2014-1-24,71.8,47.4,29.1,56.7,41.7,29.1,100,83,58,30.16,29.89,11,2,20,0.00
2014-1-25,76.1,49.6,33.7,65.7,45.3,33.4,100,87,58,30.15,30.00,3,0,9,0.00
2014-1-26,75.1,49.7,32.7,65.3,46.5,32.7,100,90,62,30.00,29.89,4,0,9,0.00
2014-1-27,65.5,52.8,46.0,59.2,51.8,46.0,100,97,76,30.08,29.95,5,0,9,0.00
2014-1-28,65.3,56.9,48.0,65.3,56.9,48.0,100,100,100,30.15,30.07,4,0,9,0.00
2014-1-29,65.8,59.7,54.2,65.8,59.7,54.2,100,100,100,30.09,29.88,3,0,9,0.00
2014-1-30,58.6,54.3,49.5,58.1,53.9,49.5,100,99,90,29.88,29.74,8,2,12,0.00
2014-1-31,59.0,46.6,35.6,53.2,44.1,35.6,100,92,63,29.98,29.79,9,2,12,0.00
2014-2-1,59.6,41.1,26.0,49.3,38.2,26.0,100,91,60,30.04,29.92,6,1,11,0.00
2014-2-2,48.6,43.9,35.0,48.6,43.9,35.0,100,100,100,29.92,29.72,11,4,18,0.16
2014-2-3,55.3,42.2,33.1,54.2,40.9,33.1,100,96,79,29.98,29.87,9,2,14,0.00
2014-2-4,57.3,41.3,30.3,49.5,39.2,30.3,100,93,65,30.06,29.96,4,0,9,0.00
2014-2-5,53.1,41.8,28.4,51.9,40.6,28.4,100,96,78,30.09,29.93,6,1,12,0.00
2014-2-6,51.3,48.8,46.8,51.3,48.8,46.8,100,100,100,29.93,29.79,7,3,11,0.00
2014-2-12,61.3,57.4,53.3,-99.9,-99.9,-99.9,0,0,100,30.17,30.07,3,0,4,0.54
2014-2-13,69.6,62.3,57.0,-99.9,-99.9,-99.9,0,0,100,30.12,30.00,5,0,10,0.00
2014-2-14,69.3,61.3,52.8,-99.9,-99.9,-99.9,0,0,100,30.07,29.95,5,1,9,0.04
2014-2-15,65.0,58.8,54.1,-99.9,-99.9,-99.9,0,0,100,29.96,29.87,7,2,14,0.07
2014-2-16,64.0,54.1,41.2,-99.9,-99.9,-99.9,0,0,100,30.10,29.92,3,1,7,0.00
2014-2-17,60.9,50.1,40.5,-99.9,-99.9,-99.9,0,0,100,30.09,29.99,8,2,12,0.01
2014-2-18,64.2,52.9,43.6,-99.9,-99.9,-99.9,0,0,100,30.10,29.99,7,1,9,0.00
2014-2-19,62.9,55.0,42.8,45.8,-85.9,-99.9,100,10,100,30.12,29.98,7,2,11,0.02
2014-2-20,69.9,50.2,38.3,59.5,1.2,-99.9,100,70,100,30.13,30.02,4,0,6,0.00
2014-2-21,71.8,51.1,37.6,71.8,51.1,37.6,100,100,100,30.02,29.90,4,1,10,0.00
2014-2-22,69.9,52.3,40.8,69.9,52.3,40.8,100,100,100,29.90,29.82,5,1,7,0.01
2014-2-23,71.3,54.5,39.1,71.3,54.5,39.1,100,100,100,29.90,29.84,4,0,7,0.00
2014-2-24,74.4,52.8,35.9,74.4,52.8,35.9,100,100,100,29.90,29.79,6,1,9,0.01
2014-2-25,62.1,53.5,42.2,62.1,53.5,42.2,100,100,100,29.87,29.80,8,1,11,0.00
2014-2-26,62.0,57.1,53.9,62.0,57.1,53.9,100,100,100,29.84,29.54,12,5,19,1.65
2014-2-27,62.1,57.1,54.2,62.1,57.1,54.2,100,100,100,29.77,29.40,10,4,15,0.02
2014-2-28,60.2,55.9,52.8,60.2,55.9,52.8,100,100,100,29.39,29.25,13,5,19,1.50
2014-3-1,65.2,57.8,53.5,65.2,57.8,53.5,100,100,100,29.70,29.34,9,4,16,0.16
2014-3-2,67.8,59.7,52.8,67.3,59.7,52.8,100,100,94,30.04,29.69,8,1,10,0.04
2014-3-3,60.9,56.6,55.1,60.9,56.6,55.1,100,100,100,30.03,29.92,6,1,9,0.31
2014-3-4,66.1,61.8,58.1,66.1,35.9,-99.9,100,84,95,30.02,29.93,6,1,9,0.01
2014-3-5,68.6,62.5,58.6,68.6,62.5,58.6,100,100,96,29.99,29.88,7,2,13,0.23
2014-3-6,65.6,60.3,52.9,65.6,60.3,52.9,100,100,100,30.10,29.93,5,1,9,0.06
2014-3-7,66.0,57.6,49.4,66.0,30.2,-99.9,100,83,95,30.08,30.00,5,1,11,0.00
2014-3-8,75.4,60.5,52.6,71.8,33.1,-99.9,100,84,94,30.10,30.01,3,0,4,0.01
2014-3-9,70.9,59.4,51.3,70.9,59.4,51.3,100,100,100,30.08,29.96,6,0,6,0.00
2014-3-10,67.6,57.5,47.1,67.6,57.5,47.1,100,100,100,30.15,29.99,9,2,17,0.01
2014-3-11,74.2,57.0,39.2,74.2,57.0,39.2,100,100,100,30.12,29.91,13,2,25,0.01
2014-3-12,74.2,62.9,43.3,74.2,62.9,43.3,100,100,100,30.01,29.91,12,5,16,0.00
2014-3-13,77.7,52.8,34.9,77.7,52.8,34.9,100,100,100,29.96,29.89,9,1,14,0.00
2014-3-14,72.8,57.0,46.7,72.8,57.0,46.7,100,100,100,30.13,29.96,6,1,11,0.00
2014-3-15,79.6,57.4,42.9,79.6,57.4,42.9,100,100,100,30.21,30.13,4,0,9,0.01
2014-3-16,76.1,57.9,48.5,76.1,57.9,48.5,100,100,100,30.20,30.11,6,1,16,0.01
2014-3-17,65.6,54.5,41.8,65.6,54.5,41.8,100,100,100,30.13,29.90,8,2,11,0.00
2014-3-18,71.8,51.5,37.2,71.8,51.5,37.2,100,100,100,29.90,29.81,6,1,10,0.00
2014-3-19,75.3,51.4,33.4,75.3,51.4,33.4,100,100,100,29.97,29.86,6,1,10,0.00
2014-3-20,73.9,51.2,39.3,73.9,51.2,39.3,100,100,100,29.95,29.86,7,1,9,0.00
2014-3-21,67.9,52.8,41.6,67.9,52.8,41.6,100,100,100,29.88,29.82,6,1,11,0.00
2014-3-22,70.3,50.8,37.0,70.3,50.8,37.0,100,100,100,30.01,29.87,6,1,8,0.01
2014-3-23,71.8,54.2,41.5,71.8,54.2,41.5,100,100,100,30.05,29.98,6,1,11,0.00
2014-3-24,76.5,52.8,37.5,76.5,52.8,37.5,100,100,100,30.06,29.92,6,0,6,0.00
2014-3-25,62.6,52.2,39.5,62.6,52.2,39.5,100,100,100,29.95,29.74,7,1,7,0.08
2014-3-26,62.6,55.9,50.5,62.6,55.9,50.5,100,100,100,29.84,29.67,9,2,13,0.53
2014-3-27,64.8,56.0,48.5,64.8,56.0,48.5,100,100,100,30.02,29.85,5,1,8,0.07
2014-3-28,65.3,59.9,55.7,65.3,59.9,55.7,100,100,100,30.07,30.00,8,2,14,0.00
2014-3-29,62.9,58.6,51.9,62.9,58.6,51.9,100,100,100,30.00,29.90,5,1,11,0.93
2014-3-30,60.9,54.5,43.6,60.9,54.5,43.6,100,100,100,30.02,29.93,6,2,10,0.00
2014-3-31,58.6,49.0,42.1,58.6,49.0,42.1,100,100,100,29.96,29.71,11,2,11,0.96
2014-4-1,58.0,50.5,45.4,58.0,50.5,45.4,100,100,100,29.81,29.71,9,2,12,0.46
2014-4-2,60.7,52.8,43.6,60.7,52.8,43.6,100,100,100,30.00,29.74,7,2,11,0.00
2014-4-3,64.3,52.8,41.9,64.3,52.8,41.9,100,100,100,30.01,29.92,8,1,9,0.01
2014-4-4,62.0,54.8,46.4,62.0,54.8,46.4,100,100,100,29.95,29.87,6,1,11,0.30
2014-4-5,63.5,53.0,42.9,63.5,53.0,42.9,100,100,100,30.09,29.95,8,2,12,0.01
2014-4-6,76.5,58.0,43.5,76.5,58.0,43.5,100,100,100,30.13,30.01,5,1,7,0.00
2014-4-7,85.3,63.2,47.9,85.3,63.2,47.9,100,100,100,30.05,29.97,5,0,7,0.01
2014-4-8,83.2,62.6,47.7,83.2,62.6,47.7,100,100,100,29.99,29.93,5,1,7,0.00
2014-4-9,72.1,59.7,51.6,72.1,59.7,51.6,100,100,100,29.98,29.89,4,1,6,0.00
2014-4-10,82.0,61.9,52.6,82.0,61.9,52.6,100,100,100,29.93,29.81,6,0,8,0.00
2014-4-11,71.6,59.6,52.9,71.6,59.6,52.9,100,100,100,29.84,29.76,6,1,7,0.00
2014-4-12,64.5,55.3,51.7,64.5,55.3,51.7,100,100,100,29.84,29.76,8,3,13,0.00
2014-4-13,70.4,57.7,51.6,70.4,57.7,51.6,100,100,100,29.95,29.83,6,1,11,0.00
2014-4-14,75.1,59.7,52.5,75.1,59.7,52.5,100,100,100,29.99,29.91,7,1,9,0.00
2014-4-15,70.8,56.4,47.1,70.8,56.4,47.1,100,100,100,29.97,29.81,7,1,9,0.00
2014-4-16,74.7,57.3,45.4,74.7,57.3,45.4,100,100,100,29.83,29.75,6,1,9,0.00
2014-4-17,65.5,55.9,46.5,65.5,55.9,46.5,100,100,100,29.79,29.69,8,2,15,0.00
2014-4-18,66.4,54.5,44.6,66.4,54.5,44.6,100,100,100,29.84,29.76,7,1,10,0.00
2014-4-19,64.2,54.2,44.2,64.2,54.2,44.2,100,100,100,30.01,29.83,9,2,13,0.00
2014-4-20,81.2,58.2,44.6,81.2,58.2,44.6,100,100,100,30.04,29.97,6,1,7,0.01
2014-4-21,68.9,53.5,40.1,68.9,53.5,40.1,100,100,100,29.98,29.86,9,1,11,0.01
2014-4-22,60.5,53.1,48.0,60.5,53.1,48.0,100,100,100,30.02,29.86,12,6,16,0.00
2014-4-23,63.4,53.2,38.6,63.4,53.2,38.6,100,100,100,30.05,29.99,8,2,12,0.00
2014-4-24,66.3,58.7,48.6,66.3,58.7,48.6,100,100,100,30.00,29.88,7,2,12,0.00
2014-4-25,61.2,55.6,46.8,61.2,55.6,46.8,100,100,100,29.88,29.68,7,2,12,0.29
2014-4-26,60.4,50.4,37.9,60.4,50.4,37.9,100,100,100,29.97,29.75,9,2,15,0.01
2014-4-27,63.4,55.8,49.5,63.4,55.8,49.5,100,100,100,30.03,29.90,9,2,13,0.03
2014-4-28,70.4,55.2,41.5,70.4,55.2,41.5,100,100,100,30.12,30.03,7,1,14,0.00
2014-4-29,89.5,62.5,40.5,89.5,62.5,40.5,100,100,100,30.10,29.95,5,1,8,0.00
2014-4-30,89.9,66.7,43.9,89.9,66.7,43.9,100,100,100,29.96,29.89,9,2,11,0.00
2014-5-1,89.9,64.4,43.9,89.9,64.4,43.9,100,100,100,30.00,29.92,5,1,8,0.00
2014-5-2,76.8,59.7,45.7,76.8,59.7,45.7,100,100,100,30.00,29.94,7,1,9,0.00
2014-5-3,64.5,59.4,55.4,64.5,59.4,55.4,100,100,100,29.95,29.90,9,4,13,0.00
2014-5-4,65.8,58.4,53.6,65.8,58.4,53.6,100,100,100,29.96,29.90,7,3,11,0.00
2014-5-5,63.9,56.5,50.1,63.9,56.5,50.1,100,100,100,29.94,29.86,11,4,14,0.00
2014-5-6,65.5,54.6,41.3,65.5,54.6,41.3,100,100,100,29.87,29.79,9,3,17,0.00
2014-5-7,65.5,53.8,41.8,65.5,53.8,41.8,100,100,100,29.90,29.78,9,2,14,0.00
2014-5-8,65.2,57.5,50.8,65.2,57.5,50.8,100,100,100,29.98,29.88,6,2,10,0.05
2014-5-9,67.9,61.4,51.1,67.9,61.4,51.1,100,100,100,30.07,29.98,11,4,15,0.01
2014-5-10,63.1,54.5,44.1,63.1,54.5,44.1,100,100,100,30.04,29.95,13,4,20,0.00
2014-5-11,75.3,55.1,36.6,75.3,55.1,36.6,100,100,100,30.01,29.95,9,2,12,0.00
2014-5-12,85.3,60.9,38.3,85.3,60.9,38.3,100,100,100,30.00,29.94,5,1,10,0.01
2014-5-13,94.9,65.7,41.3,94.9,65.7,41.3,100,100,100,30.03,29.96,8,2,10,0.00
2014-5-14,92.7,66.3,43.1,92.7,66.3,43.1,100,100,100,30.03,29.94,6,1,9,0.00
2014-5-15,87.0,61.7,40.2,87.0,61.7,40.2,100,100,100,30.00,29.95,5,1,6,0.00
2014-5-16,72.7,58.7,47.1,72.7,58.7,47.1,100,100,100,30.00,29.90,7,1,10,0.00
2014-5-17,64.8,59.4,53.3,64.8,59.4,53.3,100,100,100,29.91,29.86,9,4,13,0.00
2014-5-18,65.8,57.6,49.9,65.8,57.6,49.9,100,100,100,29.90,29.85,10,4,19,0.00
2014-5-19,67.4,58.0,52.2,67.4,58.0,52.2,100,100,99,29.86,29.82,9,4,15,0.00
2014-5-20,72.5,59.8,49.9,72.5,59.8,49.9,100,100,100,29.88,29.82,7,2,9,0.00
2014-5-21,76.1,61.0,52.0,76.1,61.0,52.0,100,100,100,29.85,29.80,6,1,9,0.00
2014-5-22,76.8,61.1,52.0,76.8,61.1,52.0,100,100,100,29.93,29.79,5,1,9,0.00
2014-5-23,77.6,62.3,52.6,77.6,62.3,52.6,100,100,100,29.93,29.82,6,1,9,0.00
2014-5-24,72.5,59.0,49.2,72.5,59.0,49.2,100,100,100,29.90,29.84,6,1,11,0.00
2014-5-25,74.6,59.3,45.4,74.6,59.2,45.4,100,100,96,29.88,29.84,7,1,10,0.00
2014-5-26,73.5,59.3,44.6,73.5,59.3,44.6,100,100,100,29.93,29.86,9,2,15,0.00
2014-5-27,68.1,57.2,47.9,68.1,57.2,47.9,100,100,97,29.94,29.90,7,2,11,0.00
2014-5-28,68.6,56.0,38.5,68.3,55.5,38.5,100,98,91,29.96,29.87,8,2,12,0.00
2014-5-29,80.7,57.7,38.3,80.7,57.6,38.3,100,100,93,29.87,29.79,6,1,8,0.00
2014-5-30,65.0,54.9,46.8,65.0,54.9,46.8,100,100,100,29.85,29.78,6,2,12,0.00
2014-5-31,78.1,59.9,50.8,78.1,59.9,50.8,100,100,100,29.85,29.81,4,1,11,0.00
2014-6-1,78.8,62.4,49.9,78.8,62.4,49.9,100,100,100,29.82,29.71,4,1,6,0.00
2014-6-2,68.8,56.3,51.1,68.8,56.3,51.1,100,100,100,29.81,29.71,8,2,11,0.00
2014-6-3,72.1,57.7,47.4,72.1,57.7,47.4,100,100,100,29.84,29.76,5,1,9,0.00
2014-6-4,82.2,63.2,46.8,82.2,63.2,46.8,100,100,100,29.79,29.72,4,1,9,0.00
2014-6-5,76.3,62.0,51.4,76.3,62.0,51.4,100,100,100,29.75,29.68,6,1,8,0.00
2014-6-6,72.0,60.1,49.2,72.0,60.1,49.2,100,100,100,29.73,29.68,6,1,9,0.00
2014-6-7,85.1,63.6,49.8,85.1,63.6,49.8,100,100,100,29.74,29.68,4,1,5,0.00
2014-6-8,94.3,70.2,47.4,94.3,70.2,47.4,100,100,100,29.73,29.64,4,1,6,0.00
2014-6-9,91.4,69.2,48.6,91.4,69.2,48.6,100,100,100,29.65,29.57,4,1,6,0.00
2014-6-10,75.1,60.6,49.1,75.1,60.6,49.1,100,100,100,29.72,29.61,6,2,9,0.00
2014-6-11,69.1,60.1,53.1,69.1,60.1,53.1,100,100,100,29.80,29.71,9,2,10,0.00
2014-6-12,66.6,58.6,52.5,66.6,58.6,52.5,100,100,99,29.87,29.79,8,3,13,0.00
2014-6-13,72.0,60.7,48.5,70.9,60.2,48.5,100,99,92,29.88,29.82,9,2,13,0.00
2014-6-14,84.7,59.5,42.6,84.7,59.4,42.6,100,99,93,29.85,29.74,7,1,8,0.00
2014-6-15,74.2,57.9,45.4,73.9,57.8,45.4,100,100,97,29.74,29.68,7,2,9,0.00
2014-6-16,64.0,56.4,48.0,63.1,56.2,48.0,100,99,96,29.80,29.72,8,3,15,0.00
2014-6-17,75.4,57.8,39.3,72.1,56.5,39.3,100,96,85,29.85,29.76,6,1,10,0.00
2014-6-18,86.3,62.0,40.1,86.3,61.4,40.1,100,98,87,29.86,29.80,7,1,11,0.00
2014-6-19,82.4,59.9,43.8,82.4,59.9,43.8,100,100,99,29.88,29.83,6,1,12,0.00
2014-6-20,75.8,59.4,43.1,75.8,59.3,43.1,100,100,94,29.88,29.83,7,1,13,0.00
2014-6-21,68.1,56.2,45.2,67.2,56.1,45.2,100,100,96,29.84,29.79,7,2,12,0.00
2014-6-22,76.5,57.8,45.8,75.6,57.5,45.8,100,99,91,29.85,29.77,7,2,12,0.00
2014-6-23,76.5,63.7,52.0,76.3,63.0,52.0,100,97,90,29.85,29.80,6,1,13,0.00
2014-6-24,70.1,60.0,48.0,69.8,60.0,48.0,100,100,98,29.91,29.85,10,3,14,0.00
2014-6-25,69.8,63.6,56.3,69.8,63.6,56.3,100,100,100,29.89,29.84,8,2,15,0.00
2014-6-26,71.5,65.4,59.0,71.5,65.4,59.0,100,100,100,29.89,29.85,8,3,15,0.00
2014-6-27,74.6,65.9,58.6,74.6,65.9,58.6,100,100,100,29.88,29.83,7,2,13,0.00
2014-6-28,76.5,64.3,55.1,76.5,64.3,55.1,100,100,100,29.86,29.82,8,2,10,0.00
2014-6-29,85.3,66.9,48.0,85.3,66.9,48.0,100,100,100,29.84,29.75,5,1,10,0.00
2014-6-30,94.0,79.2,60.1,94.0,79.2,60.1,100,100,100,29.71,29.66,6,2,10,0.00
2014-7-1,73.5,61.0,51.0,73.5,61.0,51.0,100,100,100,29.76,29.69,8,3,14,0.00
2014-7-2,78.3,62.9,55.0,78.3,62.9,55.0,100,100,100,29.78,29.71,6,1,11,0.00
2014-7-3,80.7,64.0,49.1,80.7,64.0,49.1,100,100,100,29.80,29.77,5,1,9,0.00
2014-7-4,80.3,62.3,47.6,80.3,62.3,47.6,100,100,100,29.90,29.79,7,1,8,0.00
2014-7-5,86.5,64.0,53.6,86.5,64.0,53.6,100,100,100,29.96,29.89,5,1,6,0.00
2014-7-6,84.7,65.0,55.1,84.7,65.0,55.1,100,100,100,29.96,29.85,5,1,9,0.00
2014-7-7,86.3,68.0,55.4,86.3,68.0,55.4,100,100,100,29.85,29.72,6,1,7,0.00
2014-7-8,81.1,65.7,55.4,81.1,65.7,55.4,100,100,100,29.82,29.74,8,2,11,0.00
2014-7-9,73.9,62.8,56.9,73.9,62.8,56.9,100,100,100,29.85,29.76,9,2,16,0.00
2014-7-10,70.9,62.0,58.0,70.9,62.0,58.0,100,100,100,29.85,29.79,7,2,11,0.00
2014-7-11,70.4,62.4,58.1,70.4,62.4,58.1,100,100,100,29.97,29.84,7,2,10,0.00
2014-7-12,70.9,61.5,56.9,70.9,61.5,56.9,100,100,100,29.99,29.94,7,2,11,0.00
2014-7-13,81.1,68.2,52.6,81.1,68.2,52.6,100,100,100,29.94,29.80,4,1,9,0.00
2014-7-14,90.1,68.2,48.6,90.1,68.2,48.6,100,100,100,29.82,29.74,8,1,18,0.00
2014-7-15,81.8,67.5,57.3,81.8,67.5,57.3,100,100,100,29.89,29.80,9,2,15,0.00
2014-7-16,71.6,64.8,61.0,71.6,64.8,61.0,100,100,100,29.92,29.88,9,3,14,0.00
2014-7-17,71.8,65.0,59.8,71.8,65.0,59.8,100,100,100,29.91,29.85,8,2,16,0.00
2014-7-18,73.9,65.4,59.8,73.9,65.4,59.8,100,100,100,29.92,29.84,8,2,12,0.00
2014-7-19,75.6,65.0,59.6,75.6,65.0,59.6,100,100,100,29.87,29.84,7,2,10,0.00
2014-7-20,74.6,64.0,59.3,74.6,64.0,59.3,100,100,100,29.90,29.83,6,1,9,0.00
2014-7-21,72.3,65.2,60.2,72.3,65.2,60.2,100,100,100,29.97,29.88,5,2,10,0.00
2014-7-22,74.9,65.8,59.3,74.9,65.8,59.3,100,100,100,30.00,29.92,7,2,12,0.01
2014-7-23,75.8,67.2,57.5,75.8,67.2,57.5,100,100,100,30.03,29.95,6,1,9,0.00
2014-7-24,88.0,71.3,54.8,88.0,71.3,54.8,100,100,100,29.96,29.75,5,1,9,0.00
2014-7-25,97.8,70.9,48.0,97.8,70.9,48.0,100,100,100,29.77,29.73,6,1,9,0.00
2014-7-26,90.1,68.6,49.6,90.1,68.6,49.6,100,100,100,29.85,29.77,6,1,9,0.00
2014-7-27,91.0,71.3,58.9,91.0,71.3,58.9,100,100,100,29.91,29.83,6,1,9,0.00
2014-7-28,80.3,66.7,58.3,80.3,66.7,58.3,100,100,100,29.96,29.89,5,1,9,0.00
2014-7-29,87.2,68.8,58.7,87.2,68.8,58.7,100,100,100,29.96,29.86,5,1,9,0.00
2014-7-30,89.0,69.0,59.6,89.0,69.0,59.6,100,100,100,29.90,29.83,5,1,9,0.00
2014-7-31,87.2,69.1,58.4,87.2,69.1,58.4,100,100,100,29.87,29.78,4,1,9,0.00
2014-8-1,84.9,69.0,59.5,84.9,69.0,59.5,100,100,100,29.81,29.76,5,1,9,0.00
2014-8-2,70.8,64.2,59.5,70.8,64.2,59.5,100,100,100,29.86,29.79,5,2,11,0.00
2014-8-3,72.7,63.7,59.5,72.7,63.7,59.5,100,100,100,29.86,29.82,6,2,13,0.00
2014-8-4,76.7,65.4,60.7,76.7,65.4,60.7,100,100,100,29.90,29.83,6,1,9,0.00
2014-8-5,70.3,65.1,61.2,70.3,65.1,61.2,100,100,100,29.96,29.90,4,0,9,0.00
2014-8-6,83.4,69.3,59.9,83.4,69.3,59.9,100,100,100,29.93,29.84,4,1,9,0.00
2014-8-7,79.6,65.8,58.4,79.6,65.8,58.4,100,100,100,29.88,29.79,5,1,9,0.00
2014-8-8,86.5,65.8,52.9,86.5,65.8,52.9,100,100,100,29.82,29.76,6,1,9,0.00
2014-8-9,71.5,60.9,52.3,71.5,60.9,52.3,100,100,100,29.85,29.79,7,2,10,0.00
2014-8-10,74.4,63.0,53.5,74.4,63.0,53.5,100,100,100,29.89,29.82,7,2,10,0.00
2014-8-11,82.0,59.7,53.1,82.0,59.7,53.1,100,89,100,29.83,29.75,7,1,11,0.00
2014-8-12,-200.0,0.0,200.0,-99.9,0.0,200.0,0,0,100,0.00,-32.77,0,0,9,0.00
2014-8-13,77.4,41.5,59.8,77.4,41.5,59.8,100,62,100,29.90,-32.77,8,1,11,0.00
2014-8-14,80.1,67.1,57.0,80.1,67.1,57.0,100,100,100,29.85,29.79,5,1,8,0.00
2014-8-15,83.4,67.5,56.2,83.4,67.5,56.2,100,100,100,29.90,29.83,5,1,8,0.00
2014-8-16,85.1,66.6,55.9,85.1,66.6,55.9,100,100,100,29.94,29.88,5,1,10,0.00
2014-8-17,82.6,66.2,57.8,82.6,66.2,57.8,100,100,100,29.93,29.82,7,2,11,0.00
2014-8-18,71.6,64.6,60.9,71.6,64.6,60.9,100,100,100,29.82,29.71,6,2,12,0.00
2014-8-19,72.7,65.7,63.4,72.7,65.7,63.4,100,100,100,29.76,29.71,8,2,13,0.00
2014-8-20,68.9,64.5,62.4,68.9,64.5,62.4,100,100,100,29.83,29.74,6,2,10,0.00
2014-8-21,81.2,67.5,60.5,81.2,67.5,60.5,100,100,100,29.85,29.80,5,1,11,0.00
2014-8-22,76.1,65.6,60.9,76.1,65.6,60.9,100,100,100,29.83,29.79,7,2,12,0.00
2014-8-23,77.9,65.4,57.3,77.9,65.4,57.3,100,100,100,29.85,29.77,7,2,10,0.00
2014-8-24,73.5,64.0,55.0,73.5,64.0,55.0,100,100,100,29.81,29.74,6,2,8,0.00
2014-8-25,71.5,63.4,60.1,71.5,63.4,60.1,100,100,100,29.85,29.73,7,2,12,0.00
2014-8-26,78.1,65.7,56.3,78.1,65.7,56.3,100,100,100,29.91,29.85,6,1,9,0.00
2014-8-27,84.7,66.0,54.1,84.7,66.0,54.1,100,100,100,29.97,29.90,6,1,8,0.00
2014-8-28,84.7,66.5,59.3,84.7,66.5,59.3,100,100,100,29.97,29.85,7,1,13,0.00
2014-8-29,81.4,67.6,61.6,81.4,67.6,61.6,100,100,100,29.87,29.78,5,1,8,0.00
2014-8-30,79.2,68.0,59.2,79.2,68.0,59.2,100,100,100,29.83,29.76,8,2,15,0.00
2014-8-31,79.9,67.4,54.2,79.9,67.4,54.2,100,100,100,29.83,29.75,5,1,9,0.00
2014-9-1,91.0,66.7,49.4,91.0,66.7,49.4,100,100,100,29.75,29.66,6,1,8,0.00
2014-9-2,69.9,61.2,52.2,69.9,61.2,52.2,100,100,100,29.74,29.68,8,2,13,0.00
2014-9-3,78.6,65.9,60.1,78.6,65.9,60.1,100,100,100,29.69,29.61,6,1,9,0.00
2014-9-4,76.5,65.0,57.0,76.5,65.0,57.0,100,100,100,29.70,29.60,7,2,9,0.00
2014-9-5,76.3,63.9,55.9,76.3,63.9,55.9,100,100,100,29.82,29.70,6,1,8,0.00
2014-9-6,77.9,64.0,55.6,77.9,64.0,55.6,100,100,100,29.86,29.80,6,1,10,0.00
2014-9-7,74.2,62.2,57.3,74.2,62.2,57.3,100,100,100,29.81,29.72,6,2,9,0.00
2014-9-8,67.3,59.8,56.2,67.3,59.8,56.2,100,100,100,29.84,29.74,6,2,10,0.00
2014-9-9,80.7,64.1,56.6,80.7,64.1,56.6,100,100,100,29.88,29.80,5,1,9,0.00
2014-9-10,98.2,69.3,54.1,98.2,69.3,54.1,100,100,100,29.84,29.73,7,1,7,0.00
2014-9-11,96.6,67.1,48.5,96.6,67.1,48.5,100,100,100,29.80,29.71,4,1,6,0.00
2014-9-12,91.0,70.2,58.0,91.0,70.2,58.0,100,100,100,29.79,29.70,4,1,6,0.00
2014-9-13,87.0,67.6,56.7,87.0,67.6,56.7,100,100,100,29.76,29.69,5,1,7,0.00
2014-9-14,81.8,66.6,55.7,81.8,66.6,55.7,100,100,100,29.76,29.72,6,1,9,0.00
2014-9-15,77.9,65.5,55.7,77.9,65.5,55.7,100,100,100,29.83,29.75,7,1,12,0.00
2014-9-16,81.8,67.6,56.7,81.8,67.6,56.7,100,100,100,29.84,29.71,7,1,11,0.00
2014-9-17,80.5,69.2,62.3,80.5,69.2,62.3,100,100,100,29.72,29.63,6,1,13,0.03
2014-9-18,77.4,71.7,63.7,77.4,71.7,63.7,100,100,100,29.79,29.66,5,1,9,0.12
2014-9-19,78.6,71.1,63.9,78.6,71.1,63.9,100,100,100,29.81,29.74,4,1,8,0.00
2014-9-20,73.5,68.1,64.8,73.5,68.1,64.8,100,100,100,29.86,29.77,7,2,13,0.00
2014-9-21,73.2,66.7,64.5,73.2,66.7,64.5,100,100,100,29.92,29.83,6,2,9,0.00
2014-9-22,78.6,66.2,55.6,78.6,66.2,55.6,100,100,100,29.93,29.86,7,2,11,0.00
2014-9-23,78.6,68.0,55.0,78.6,68.0,55.0,100,100,100,29.90,29.79,6,1,11,0.00
2014-9-24,75.3,62.7,66.4,75.3,62.7,66.4,100,88,100,29.84,29.74,6,1,13,0.01
2014-9-25,73.2,56.1,62.3,73.2,54.9,62.3,100,81,100,29.90,29.77,7,2,10,0.00
2014-9-26,73.0,66.4,60.5,73.0,66.4,60.5,100,100,100,29.90,29.80,7,2,17,0.00
2014-9-27,76.3,65.3,57.6,76.3,65.3,57.6,100,100,100,29.83,29.73,6,1,10,0.01
2014-9-28,77.0,65.3,58.9,77.0,65.3,58.9,100,100,100,29.88,29.72,7,1,11,0.00
2014-9-29,72.1,64.9,58.1,72.1,64.9,58.1,100,100,100,29.92,29.85,6,1,8,0.00
2014-9-30,79.0,66.6,54.1,79.0,66.6,54.1,100,100,100,29.88,29.75,5,1,7,0.00
2014-10-1,87.0,63.6,46.5,87.0,63.6,46.5,100,100,100,29.85,29.75,5,1,9,0.00
2014-10-2,90.7,62.8,40.9,90.7,62.8,40.9,100,100,100,29.93,29.84,9,2,13,0.00
2014-10-3,98.5,66.0,43.2,98.5,66.0,43.2,100,100,100,29.98,29.89,4,1,7,0.00
2014-10-4,97.8,65.0,40.8,97.8,65.0,40.8,100,100,100,29.95,29.84,5,1,6,0.00
2014-10-5,97.5,62.5,40.3,97.5,62.5,40.3,100,100,100,29.86,29.78,4,0,9,0.00
2014-10-6,93.8,66.6,50.1,93.8,66.6,50.1,100,100,100,29.83,29.73,4,1,7,0.00
2014-10-7,83.2,65.0,54.2,83.2,65.0,54.2,100,100,96,29.83,29.75,4,0,5,0.00
2014-10-8,88.2,67.7,54.8,88.0,67.4,54.8,100,99,93,29.82,29.75,6,1,9,0.00
2014-10-9,70.9,64.1,58.7,70.9,64.1,58.7,100,100,100,29.89,29.81,5,1,7,0.01
2014-10-10,78.5,63.9,52.2,78.2,63.8,52.2,100,100,96,29.95,29.88,6,1,8,0.00
2014-10-11,84.3,65.4,52.2,84.0,65.1,52.2,100,99,93,29.94,29.87,6,1,9,0.00
2014-10-12,92.9,67.3,49.4,91.6,64.3,44.5,100,91,71,29.90,29.79,4,0,8,0.00
2014-10-13,90.1,61.8,41.3,85.7,58.5,39.4,100,90,67,29.85,29.79,7,1,8,0.00
2014-10-14,66.0,63.3,57.3,66.0,63.3,57.3,100,100,100,29.85,29.71,7,2,11,0.00
2014-10-15,71.6,64.7,57.6,71.6,64.7,57.6,100,100,100,29.93,29.74,6,1,11,1.07
2014-10-16,71.8,61.3,55.6,70.4,60.6,55.6,100,98,80,29.93,29.83,5,0,7,0.01
2014-10-17,72.3,63.2,53.8,70.7,63.0,53.8,100,99,94,29.87,29.80,7,1,11,0.01
2014-10-18,79.0,68.5,62.4,79.0,68.5,62.4,100,100,100,29.88,29.79,5,1,7,0.00
2014-10-19,75.6,68.3,61.0,75.6,68.3,61.0,100,100,100,29.82,29.75,4,1,8,0.00
2014-10-20,70.9,64.5,56.3,70.9,64.5,56.3,100,100,100,29.96,29.77,9,2,11,0.05
2014-10-21,70.9,60.4,53.8,70.5,60.2,53.8,100,99,90,30.01,29.91,7,1,12,0.01
2014-10-22,72.8,61.7,51.7,72.8,61.7,51.7,100,100,100,29.97,29.91,6,1,9,0.01
2014-10-23,74.0,66.1,56.9,74.0,66.1,56.9,100,100,100,29.96,29.86,4,0,6,0.00
2014-10-24,74.4,63.3,54.5,74.4,63.3,54.5,100,100,100,29.87,29.76,8,2,9,0.01
2014-10-25,69.8,64.5,59.2,69.8,64.5,59.2,100,100,100,30.05,29.76,9,3,16,0.41
2014-10-26,69.1,59.8,51.0,69.1,59.8,51.0,100,100,100,30.08,29.96,7,2,10,0.01
2014-10-27,69.3,57.0,48.5,69.3,57.0,48.5,100,100,100,29.96,29.91,5,1,8,0.01
2014-10-28,74.0,60.1,50.4,74.0,60.1,50.4,100,100,100,30.02,29.95,6,1,7,0.01
2014-10-29,84.5,64.9,54.5,84.5,64.9,54.5,100,100,100,30.01,29.87,4,0,6,0.00
2014-10-30,79.0,63.3,53.6,79.0,63.3,53.6,100,100,100,29.88,29.76,7,1,11,0.00
2014-10-31,66.1,61.9,56.2,66.1,61.9,56.2,100,100,100,29.79,29.62,5,0,7,0.58
2014-11-1,67.6,57.5,49.6,67.6,57.5,49.6,100,100,100,29.93,29.62,8,2,11,0.01
2014-11-2,68.1,53.8,45.8,68.1,53.8,45.8,100,100,100,30.07,29.93,5,1,10,0.00
2014-11-3,69.6,56.3,44.8,69.6,56.3,44.8,100,100,100,30.15,30.06,4,0,6,0.01
2014-11-4,73.9,58.4,50.2,73.9,58.4,50.2,100,100,100,30.22,30.11,4,0,6,0.00
2014-11-5,78.1,60.2,50.4,78.1,60.2,50.4,100,100,100,30.13,29.96,4,0,8,0.01
2014-11-6,76.5,61.2,51.4,76.5,61.2,51.4,100,100,100,30.09,30.01,6,1,9,0.00
2014-11-7,64.8,58.2,55.4,64.8,58.2,55.4,100,100,100,30.10,30.05,0,0,0,0.01
2014-11-12,66.9,61.0,57.3,66.9,61.0,57.3,100,100,100,29.90,29.84,5,1,7,0.01
2014-11-13,73.2,65.9,61.3,73.2,65.9,61.3,100,100,100,29.97,29.80,5,1,8,0.03
2014-11-14,71.3,63.1,53.5,71.3,63.1,53.5,100,100,100,30.00,29.95,5,1,9,0.01
2014-11-15,69.1,56.9,49.5,69.1,56.9,49.5,100,100,100,30.09,29.98,7,1,9,0.00
2014-11-16,65.6,53.1,38.8,65.6,53.1,38.8,100,100,100,30.16,30.07,3,0,5,0.01
2014-11-17,66.0,51.3,36.5,66.0,51.3,36.5,100,100,100,30.16,29.99,6,2,11,0.00
2014-11-18,64.7,56.5,50.8,64.7,56.5,50.8,100,100,100,30.02,29.92,8,2,10,0.00
2014-11-19,68.4,60.2,52.2,68.4,60.2,52.2,100,100,100,30.02,29.87,8,2,11,0.46
2014-11-20,71.6,65.4,61.3,71.6,65.4,61.3,100,100,100,30.02,29.82,12,1,14,0.64
2014-11-21,72.3,62.9,58.6,68.4,29.1,59.3,100,46,97,30.00,29.91,1,0,4,0.02
2014-11-22,74.2,65.3,53.8,-99.9,0.0,200.0,0,0,100,30.15,29.91,10,3,15,0.42
2014-11-23,67.8,55.3,46.7,54.8,26.0,46.7,100,52,94,30.22,30.14,2,0,3,0.01
2014-11-24,70.1,53.7,45.1,57.3,32.4,45.1,100,67,97,30.30,30.21,2,0,4,0.01
2014-11-25,66.9,53.9,46.4,62.0,34.9,46.4,100,71,100,30.36,30.21,6,1,8,0.00
2014-11-26,70.3,55.3,44.5,70.3,55.3,44.5,100,100,100,30.21,30.09,5,1,8,0.01
2014-11-27,70.4,55.1,44.1,70.4,55.1,44.1,100,100,100,30.09,29.94,2,0,4,0.00
2014-11-28,69.6,60.1,54.4,69.6,60.1,54.4,100,100,100,29.95,29.72,4,1,9,0.13
2014-11-29,72.0,66.7,62.6,72.0,65.7,62.6,100,98,94,29.74,29.63,6,1,7,0.46
2014-11-30,65.0,60.9,55.9,64.3,15.2,61.6,100,24,95,29.90,29.62,10,3,14,0.36
2014-12-1,68.6,63.9,59.6,-99.9,0.0,200.0,0,0,100,30.00,29.83,6,1,10,0.19
2014-12-2,69.9,63.6,59.3,-99.9,0.0,200.0,0,0,100,29.84,29.56,10,3,15,2.15
2014-12-3,70.4,65.5,60.1,-99.9,0.0,200.0,0,0,100,29.77,29.55,13,4,19,1.19
2014-12-4,76.5,65.4,60.1,-99.9,0.0,200.0,0,0,100,29.90,29.76,5,0,6,0.27
2014-12-5,76.3,69.3,63.2,-99.9,0.0,200.0,0,0,100,29.95,29.84,8,2,19,0.51
2014-12-6,73.5,65.3,61.3,-99.9,0.0,200.0,0,0,100,30.11,29.95,5,0,6,0.12
2014-12-7,72.0,65.6,58.9,-99.9,0.0,200.0,0,0,100,30.10,29.99,9,1,12,0.00
2014-12-8,69.8,65.7,63.2,-99.9,0.0,200.0,0,0,100,30.07,30.01,4,0,5,0.04
2014-12-9,73.2,68.3,62.9,-99.9,0.0,200.0,0,0,100,30.09,29.97,4,0,4,0.00
2014-12-10,71.3,65.6,61.8,-99.9,0.0,200.0,0,0,100,29.96,29.56,13,3,21,0.61
2014-12-11,68.8,65.7,64.5,-99.9,0.0,200.0,0,0,100,29.57,29.36,12,4,32,2.36
2014-12-12,66.4,65.5,65.2,-99.9,0.0,200.0,0,0,100,29.66,29.54,0,0,2,0.01
2014-12-15,72.7,66.1,58.0,-99.9,0.0,200.0,0,0,100,29.79,29.71,7,2,11,1.53
2014-12-16,79.2,68.0,58.0,-99.9,0.0,200.0,0,0,100,29.82,29.69,13,2,20,0.99
2014-12-17,74.6,73.7,72.5,-99.9,0.0,200.0,0,0,100,29.86,29.81,1,0,2,0.09
2014-12-18,66.4,61.5,58.1,-99.9,0.0,200.0,0,0,100,30.08,30.01,5,1,7,0.01
2014-12-19,78.1,73.6,60.9,-99.9,0.0,200.0,0,0,100,30.04,29.96,6,1,9,1.05
2014-12-20,82.2,74.1,61.3,-99.9,0.0,200.0,0,0,100,30.12,30.01,1,0,7,0.11
2014-12-21,84.5,82.2,79.0,-99.9,0.0,200.0,0,0,100,30.20,30.11,7,1,14,0.04
2014-12-22,84.5,75.1,63.7,-99.9,0.0,200.0,0,0,100,30.18,30.08,4,0,7,0.00
2014-12-23,85.7,72.3,60.5,-99.9,0.0,200.0,0,0,100,30.12,30.01,1,0,7,0.02
2014-12-24,81.6,64.8,44.1,-99.9,0.0,200.0,0,0,100,30.02,29.86,12,2,19,0.05
2014-12-25,61.0,49.7,42.3,-99.9,0.0,200.0,0,0,100,30.07,29.97,7,1,9,0.00
2014-12-26,61.2,47.1,38.5,52.8,13.2,38.5,100,31,94,30.16,30.01,8,2,12,0.00
2014-12-27,63.5,49.9,41.9,63.5,49.4,41.9,100,99,95,30.26,30.15,4,0,7,0.01
2014-12-28,65.3,55.3,48.3,65.3,54.9,48.3,100,99,94,30.26,30.11,4,0,7,0.00
2014-12-29,73.0,54.9,41.1,71.8,54.1,41.1,100,98,94,30.13,29.99,7,1,8,0.01
2014-12-30,54.2,48.8,41.5,54.2,48.0,41.5,100,98,94,30.17,30.00,17,6,27,0.02
2014-12-31,61.5,43.6,31.8,61.5,43.5,31.8,100,100,94,30.16,29.94,13,2,15,0.00
2015-1-1,55.4,39.8,31.8,54.8,39.6,31.8,100,99,94,30.05,29.95,4,0,7,0.00
2015-1-2,55.3,44.0,32.9,54.7,43.8,32.9,100,99,94,30.12,30.00,5,0,7,0.01